Time;durP1;ratioP1;P1;durP2;ratioP2;P2;SDS_P1;SDS_P2;PMS_P1;PMS_P2;Temp;Humidity;BMP_temperature;BMP_pressure;BME280_temperature;BME280_humidity;BME280_pressure;Samples;Min_cycle;Max_cycle;Signal;HPM_P1;HPM_P2
2023/04/09 00:01:05;;;;;;;8.60;7.80;;;;;;;12.92;52.14;99457.69;6970696;28;20267;-78
2023/04/09 00:04:26;;;;;;;9.83;8.93;;;;;;;12.53;53.47;99451.31;6971346;28;20568;-78
2023/04/09 00:07:47;;;;;;;8.97;8.07;;;;;;;12.69;53.14;99454.47;6971290;28;20226;-79
2023/04/09 00:11:09;;;;;;;9.53;8.53;;;;;;;12.47;53.95;99452.13;6970454;28;20740;-79
2023/04/09 00:14:32;;;;;;;10.93;9.00;;;;;;;12.56;54.25;99451.72;6970941;28;20230;-78
2023/04/09 00:17:55;;;;;;;8.73;7.87;;;;;;;12.87;53.10;99445.81;6970757;28;20232;-78
2023/04/09 00:21:16;;;;;;;9.73;8.77;;;;;;;12.86;53.14;99453.09;6968848;28;20257;-78
2023/04/09 00:24:38;;;;;;;11.13;9.50;;;;;;;12.93;52.69;99445.00;6970068;28;20230;-79
2023/04/09 00:27:59;;;;;;;10.30;8.80;;;;;;;12.82;53.03;99441.03;6970853;28;20231;-78
2023/04/09 00:31:22;;;;;;;8.63;7.73;;;;;;;13.05;52.66;99446.09;6970146;28;20586;-78
2023/04/09 00:34:44;;;;;;;9.13;8.20;;;;;;;12.93;53.10;99447.69;6997495;28;20225;-78
2023/04/09 00:38:05;;;;;;;8.43;7.60;;;;;;;12.96;52.72;99445.44;6997547;28;20643;-78
2023/04/09 00:41:27;;;;;;;9.97;8.87;;;;;;;12.74;53.32;99446.59;6996997;28;20214;-79
2023/04/09 00:44:48;;;;;;;8.70;7.90;;;;;;;12.49;53.91;99448.19;6997102;28;20225;-77
2023/04/09 00:48:11;;;;;;;10.37;8.73;;;;;;;12.58;53.87;99449.66;6997514;28;20274;-76
2023/04/09 00:51:33;;;;;;;9.87;8.97;;;;;;;11.90;55.33;99444.31;6996995;28;20245;-77
2023/04/09 00:54:55;;;;;;;9.30;8.40;;;;;;;11.94;55.84;99451.00;6997304;28;20225;-77
2023/04/09 00:58:16;;;;;;;11.43;8.80;;;;;;;11.94;56.04;99448.31;6997605;28;20206;-76
2023/04/09 01:01:38;;;;;;;11.40;10.30;;;;;;;12.09;55.00;99421.16;6996734;28;20213;-78
2023/04/09 01:05:00;;;;;;;10.73;9.63;;;;;;;12.64;54.06;99448.03;6996579;28;20274;-79
2023/04/09 01:08:30;;;;;;;11.20;9.43;;;;;;;12.84;53.17;99455.16;6997238;28;20600;-79
2023/04/09 01:12:01;;;;;;;11.00;9.30;;;;;;;12.82;53.13;99451.00;6998371;28;20237;-80
2023/04/09 01:15:26;;;;;;;11.20;8.90;;;;;;;12.45;53.92;99456.91;7004143;28;20225;-80
2023/04/09 01:18:50;;;;;;;10.20;8.83;;;;;;;12.48;54.23;99443.81;7007819;28;20174;-80
2023/04/09 01:22:33;;;;;;;10.50;8.83;;;;;;;12.69;53.67;99445.56;7013389;28;20205;-79
2023/04/09 01:26:03;;;;;;;9.97;9.03;;;;;;;12.47;54.53;99442.16;7009969;28;20326;-79
2023/04/09 01:29:27;;;;;;;11.73;9.17;;;;;;;12.08;55.50;99441.09;7000970;28;20217;-76
2023/04/09 01:32:49;;;;;;;13.87;12.33;;;;;;;12.14;55.66;99446.53;7002505;28;20278;-79
2023/04/09 01:36:11;;;;;;;9.80;8.20;;;;;;;12.03;55.82;99443.56;7011739;28;20622;-78
2023/04/09 01:39:32;;;;;;;15.23;8.83;;;;;;;11.89;56.31;99439.94;7011234;28;20273;-78
2023/04/09 01:42:54;;;;;;;9.63;8.53;;;;;;;11.98;56.56;99457.66;7010806;28;20717;-80
2023/04/09 01:46:17;;;;;;;11.20;8.40;;;;;;;11.97;56.31;99447.03;7011339;28;20314;-79
2023/04/09 01:49:42;;;;;;;10.57;9.47;;;;;;;12.12;55.98;99445.06;7009117;28;20330;-78
2023/04/09 01:53:03;;;;;;;9.17;8.27;;;;;;;12.11;55.04;99422.59;7008511;28;20728;-80
2023/04/09 01:56:25;;;;;;;9.10;8.20;;;;;;;11.92;55.69;99441.44;7007112;28;20302;-79
2023/04/09 01:59:46;;;;;;;9.60;8.70;;;;;;;11.73;55.99;99405.13;7006653;28;20236;-79
2023/04/09 02:03:11;;;;;;;11.33;9.07;;;;;;;11.75;56.26;99454.38;7005590;28;20299;-80
2023/04/09 02:06:39;;;;;;;9.33;8.17;;;;;;;12.08;55.97;99450.03;7004715;28;20229;-80
2023/04/09 02:10:00;;;;;;;9.47;8.40;;;;;;;12.42;55.01;99460.00;7003571;28;20198;-80
2023/04/09 02:13:23;;;;;;;9.67;8.67;;;;;;;12.32;54.70;99418.97;7003395;28;20230;-80
2023/04/09 02:16:45;;;;;;;9.57;8.60;;;;;;;12.72;53.57;99453.25;7003857;28;20214;-80
2023/04/09 02:20:10;;;;;;;9.10;8.30;;;;;;;12.39;54.14;99446.88;7001624;28;20215;-80
2023/04/09 02:23:32;;;;;;;11.53;9.63;;;;;;;11.75;56.32;99454.38;7003174;28;20568;-80
2023/04/09 02:26:53;;;;;;;17.00;9.57;;;;;;;11.92;56.23;99454.94;7002729;28;20228;-80
2023/04/09 02:30:15;;;;;;;9.73;8.60;;;;;;;12.03;56.47;99441.69;7001841;28;20338;-80
2023/04/09 02:33:36;;;;;;;12.17;10.23;;;;;;;11.91;56.21;99447.84;6996764;28;20229;-80
2023/04/09 02:36:59;;;;;;;10.53;9.53;;;;;;;11.81;56.68;99428.47;7001434;28;20756;-79
2023/04/09 02:40:21;;;;;;;9.93;9.03;;;;;;;11.88;56.20;99419.38;6999951;28;20651;-79
2023/04/09 02:43:42;;;;;;;10.67;9.60;;;;;;;12.18;55.43;99437.00;7001057;28;20312;-79
2023/04/09 02:47:04;;;;;;;11.03;9.93;;;;;;;12.19;55.30;99433.25;7001161;28;20226;-80
2023/04/09 02:50:25;;;;;;;14.10;10.33;;;;;;;11.99;55.13;99442.28;7000493;28;20206;-80
2023/04/09 02:53:48;;;;;;;13.27;9.60;;;;;;;12.09;55.18;99446.31;7001212;28;20260;-80
2023/04/09 02:57:09;;;;;;;11.60;10.40;;;;;;;11.76;56.20;99439.84;7001838;28;20627;-80
2023/04/09 03:00:31;;;;;;;12.03;10.20;;;;;;;11.73;56.65;99439.41;7000767;28;20351;-79
2023/04/09 03:03:52;;;;;;;11.40;10.23;;;;;;;12.02;56.52;99439.19;7000770;28;20741;-80
2023/04/09 03:07:14;;;;;;;11.10;9.80;;;;;;;12.18;55.75;99436.16;6998675;28;20234;-79
2023/04/09 03:10:37;;;;;;;11.73;10.00;;;;;;;12.21;55.15;99433.06;6999305;28;20266;-78
2023/04/09 03:13:58;;;;;;;12.57;11.20;;;;;;;12.14;55.62;99426.78;7000138;28;20291;-79
2023/04/09 03:17:20;;;;;;;10.93;9.63;;;;;;;12.37;55.01;99432.72;7000434;28;20209;-79
2023/04/09 03:20:41;;;;;;;10.23;9.23;;;;;;;12.36;54.60;99417.53;6998647;28;20209;-78
2023/04/09 03:24:03;;;;;;;9.50;8.60;;;;;;;11.95;55.55;99430.19;6999995;28;20234;-78
2023/04/09 03:27:26;;;;;;;10.00;9.00;;;;;;;11.79;56.30;99420.53;7000030;28;20690;-78
2023/04/09 03:30:47;;;;;;;11.63;9.97;;;;;;;12.12;55.66;99420.75;6999551;28;20274;-78
2023/04/09 03:34:09;;;;;;;10.33;9.33;;;;;;;11.77;55.64;99378.53;6999785;28;20225;-78
2023/04/09 03:37:30;;;;;;;12.53;10.30;;;;;;;11.55;56.22;99410.16;6999539;28;20210;-79
2023/04/09 03:40:52;;;;;;;10.60;9.40;;;;;;;11.60;57.10;99428.50;6998950;28;20600;-78
2023/04/09 03:44:14;;;;;;;10.93;9.67;;;;;;;11.63;56.57;99410.03;6998975;28;20278;-78
2023/04/09 03:47:36;;;;;;;12.87;9.57;;;;;;;11.82;56.48;99419.31;6999497;28;20925;-78
2023/04/09 03:50:57;;;;;;;11.17;10.07;;;;;;;11.93;55.70;99432.28;6998304;28;20367;-78
2023/04/09 03:54:19;;;;;;;9.80;8.80;;;;;;;12.18;54.78;99419.94;6999581;28;20274;-79
2023/04/09 03:57:41;;;;;;;11.17;9.80;;;;;;;11.97;55.30;99428.97;6998895;28;20201;-79
2023/04/09 04:01:03;;;;;;;9.93;8.93;;;;;;;11.95;55.37;99420.25;6998395;28;20678;-79
2023/04/09 04:04:25;;;;;;;10.73;9.30;;;;;;;11.83;55.68;99426.38;6998669;28;20229;-79
2023/04/09 04:07:46;;;;;;;10.00;9.00;;;;;;;12.08;55.45;99425.72;6998415;28;20631;-78
2023/04/09 04:11:08;;;;;;;9.97;8.97;;;;;;;12.08;54.95;99427.56;6997946;28;20225;-78
2023/04/09 04:14:29;;;;;;;9.03;8.23;;;;;;;11.39;55.95;99417.72;6997961;28;20273;-80
2023/04/09 04:17:52;;;;;;;11.17;10.03;;;;;;;11.48;57.35;99430.88;6997524;28;20208;-78
2023/04/09 04:21:14;;;;;;;11.17;10.13;;;;;;;11.58;56.86;99428.69;6996568;28;20607;-80
2023/04/09 04:24:35;;;;;;;10.53;9.43;;;;;;;11.64;56.35;99429.78;6997988;28;20641;-79
2023/04/09 04:27:57;;;;;;;10.87;9.77;;;;;;;11.49;56.92;99426.31;6997820;28;20278;-78
2023/04/09 04:31:19;;;;;;;11.77;10.43;;;;;;;11.22;56.54;99435.22;6997155;28;20674;-79
2023/04/09 04:34:41;;;;;;;11.60;10.40;;;;;;;11.01;58.23;99432.53;6982166;28;20257;-79
2023/04/09 04:38:03;;;;;;;11.13;9.87;;;;;;;11.34;57.64;99437.19;6970125;28;20231;-78
2023/04/09 04:41:24;;;;;;;11.80;10.00;;;;;;;11.31;58.03;99439.44;6969528;28;20339;-80
2023/04/09 04:44:46;;;;;;;11.83;10.63;;;;;;;11.40;57.46;99444.50;6969972;28;20230;-78
2023/04/09 04:48:07;;;;;;;12.50;10.63;;;;;;;11.41;57.88;99432.72;6969415;28;20238;-78
2023/04/09 04:51:31;;;;;;;12.27;11.03;;;;;;;11.84;56.19;99428.91;6968720;28;20243;-79
2023/04/09 04:54:53;;;;;;;11.53;10.30;;;;;;;11.95;55.72;99433.75;6969748;28;20226;-79
2023/04/09 04:58:14;;;;;;;11.03;9.90;;;;;;;12.03;55.49;99448.97;6969783;28;20263;-79
2023/04/09 05:01:36;;;;;;;12.13;10.83;;;;;;;12.20;54.63;99450.31;6968844;28;20667;-78
2023/04/09 05:04:57;;;;;;;12.87;11.47;;;;;;;11.79;55.49;99438.59;6969403;28;20295;-79
2023/04/09 05:08:20;;;;;;;11.63;10.37;;;;;;;11.32;56.60;99457.31;6969066;28;20229;-78
2023/04/09 05:11:42;;;;;;;12.30;10.97;;;;;;;11.48;57.32;99460.59;6968699;28;20626;-79
2023/04/09 05:15:04;;;;;;;13.20;11.47;;;;;;;11.26;57.54;99442.75;6968969;28;20226;-79
2023/04/09 05:18:26;;;;;;;13.97;11.77;;;;;;;11.68;57.13;99456.22;6968408;28;20620;-78
2023/04/09 05:21:47;;;;;;;14.33;12.43;;;;;;;11.81;56.93;99447.38;6967682;28;20272;-78
2023/04/09 05:25:10;;;;;;;12.80;11.00;;;;;;;12.18;55.92;99464.03;6969131;28;20706;-79
2023/04/09 05:28:33;;;;;;;13.37;11.77;;;;;;;11.91;56.68;99461.34;6984986;28;20274;-78
2023/04/09 05:31:55;;;;;;;13.93;12.03;;;;;;;11.55;57.14;99453.38;6994109;28;20562;-79
2023/04/09 05:35:16;;;;;;;13.93;11.67;;;;;;;11.97;56.68;99442.50;6996049;28;20270;-79
2023/04/09 05:38:38;;;;;;;13.43;12.03;;;;;;;12.16;56.06;99452.56;6996557;28;20254;-78
2023/04/09 05:42:01;;;;;;;14.10;12.03;;;;;;;12.36;54.76;99453.53;6996144;28;20270;-78
2023/04/09 05:45:22;;;;;;;16.60;11.63;;;;;;;12.95;53.77;99451.91;6995514;28;20233;-78
2023/04/09 05:48:44;;;;;;;12.53;11.23;;;;;;;12.67;54.35;99456.56;6996840;28;20577;-78
2023/04/09 05:52:05;;;;;;;12.57;11.27;;;;;;;13.06;53.36;99456.72;6995567;28;20252;-81
2023/04/09 05:55:27;;;;;;;11.83;10.60;;;;;;;13.95;51.21;99450.72;6996168;28;20629;-78
2023/04/09 05:58:50;;;;;;;11.50;10.30;;;;;;;14.09;50.63;99449.63;6995943;28;20254;-78
2023/04/09 06:02:11;;;;;;;12.67;10.03;;;;;;;14.06;51.05;99450.06;6995703;28;20570;-78
2023/04/09 06:05:33;;;;;;;12.10;10.80;;;;;;;14.21;49.84;99461.53;6995561;28;20367;-78
2023/04/09 06:08:54;;;;;;;11.10;10.00;;;;;;;15.14;46.93;99448.19;6993046;28;20256;-78
2023/04/09 06:12:16;;;;;;;11.27;10.17;;;;;;;14.31;48.12;99467.34;6994053;28;20275;-77
2023/04/09 06:15:39;;;;;;;12.97;11.27;;;;;;;12.89;51.08;99468.09;6992285;28;20599;-77
2023/04/09 06:19:00;;;;;;;14.07;12.23;;;;;;;12.57;52.07;99468.81;6976628;28;20198;-76
2023/04/09 06:22:22;;;;;;;12.63;11.13;;;;;;;12.47;53.19;99469.19;6966848;28;20329;-78
2023/04/09 06:25:43;;;;;;;16.53;11.93;;;;;;;12.18;54.18;99468.59;6967958;28;20691;-77
2023/04/09 06:29:05;;;;;;;12.97;11.30;;;;;;;13.20;50.77;99454.84;6967313;28;20219;-77
2023/04/09 06:32:28;;;;;;;11.27;10.03;;;;;;;14.32;48.77;99441.88;6967058;28;20202;-77
2023/04/09 06:35:50;;;;;;;13.23;11.37;;;;;;;14.25;48.12;99451.09;6979471;28;20692;-77
2023/04/09 06:39:11;;;;;;;11.00;9.80;;;;;;;15.14;46.66;99448.19;6995345;28;20571;-77
2023/04/09 06:42:33;;;;;;;12.47;10.63;;;;;;;15.99;44.88;99439.38;6997523;28;20563;-78
2023/04/09 06:45:54;;;;;;;11.13;10.03;;;;;;;16.21;43.34;99444.16;6998625;28;20223;-78
2023/04/09 06:49:17;;;;;;;12.70;10.13;;;;;;;16.25;44.01;99455.41;6996847;28;20652;-77
2023/04/09 06:52:39;;;;;;;11.27;9.87;;;;;;;16.54;42.81;99447.38;6972217;28;20711;-77
2023/04/09 06:56:00;;;;;;;11.53;10.37;;;;;;;16.53;43.09;99447.59;6972553;28;20231;-77
2023/04/09 06:59:22;;;;;;;10.17;9.17;;;;;;;17.00;42.00;99453.09;6972446;28;20332;-78
2023/04/09 07:02:43;;;;;;;10.63;9.53;;;;;;;17.00;42.07;99454.97;6971787;28;20273;-79
2023/04/09 07:06:06;;;;;;;10.13;9.03;;;;;;;17.41;40.17;99455.88;6973041;28;20259;-78
2023/04/09 07:09:28;;;;;;;9.47;8.50;;;;;;;17.21;40.31;99452.56;6999533;28;20280;-78
2023/04/09 07:12:49;;;;;;;11.33;10.00;;;;;;;15.83;43.12;99446.22;6998869;28;20239;-77
2023/04/09 07:16:11;;;;;;;9.70;8.70;;;;;;;16.25;42.47;99449.97;6994697;28;20210;-78
2023/04/09 07:19:33;;;;;;;9.90;8.90;;;;;;;17.02;40.95;99461.84;6997300;28;20598;-78
2023/04/09 07:22:55;;;;;;;10.53;9.53;;;;;;;14.60;45.57;99477.69;6999452;28;20266;-77
2023/04/09 07:26:17;;;;;;;11.63;10.43;;;;;;;13.55;48.78;99480.72;6999107;28;20259;-77
2023/04/09 07:29:38;;;;;;;11.83;10.67;;;;;;;14.38;46.58;99481.72;6998444;28;20236;-77
2023/04/09 07:33:00;;;;;;;12.03;10.73;;;;;;;15.41;44.65;99481.47;6997506;28;20653;-77
2023/04/09 07:36:21;;;;;;;11.53;10.33;;;;;;;15.68;43.79;99472.09;6974833;28;20253;-77
2023/04/09 07:39:44;;;;;;;10.30;9.23;;;;;;;14.95;45.87;99479.00;6970688;28;20269;-78
2023/04/09 07:43:06;;;;;;;10.97;9.80;;;;;;;15.64;43.73;99474.38;6970695;28;20231;-77
2023/04/09 07:46:27;;;;;;;9.73;8.73;;;;;;;15.36;41.92;99475.88;6970769;28;20213;-77
2023/04/09 07:49:49;;;;;;;9.97;8.90;;;;;;;14.81;43.38;99484.72;6970466;28;20767;-77
2023/04/09 07:53:10;;;;;;;10.40;9.13;;;;;;;15.47;42.08;99470.56;6982165;28;20327;-78
2023/04/09 07:56:33;;;;;;;9.50;8.50;;;;;;;14.34;44.15;99494.03;6998354;28;20210;-76
2023/04/09 07:59:55;;;;;;;10.60;9.10;;;;;;;14.30;43.95;99476.53;6997444;28;20554;-77
2023/04/09 08:03:16;;;;;;;10.70;9.60;;;;;;;13.70;45.84;99494.94;6998214;28;20228;-77
2023/04/09 08:06:37;;;;;;;10.07;9.07;;;;;;;14.47;44.73;99488.59;6998552;28;20213;-77
2023/04/09 08:09:59;;;;;;;10.97;8.90;;;;;;;14.80;43.20;99492.00;6997260;28;20638;-77
2023/04/09 08:13:23;;;;;;;10.47;9.37;;;;;;;14.41;45.14;99491.31;6998348;28;20292;-78
2023/04/09 08:16:45;;;;;;;9.43;8.53;;;;;;;14.76;43.37;99496.19;6998149;28;20253;-77
2023/04/09 08:20:08;;;;;;;10.73;9.10;;;;;;;14.20;44.69;99489.69;6996534;28;20240;-78
2023/04/09 08:23:30;;;;;;;11.00;9.40;;;;;;;14.75;44.12;99488.28;6997790;28;20231;-77
2023/04/09 08:26:51;;;;;;;9.33;8.43;;;;;;;15.40;41.68;99477.91;6997820;28;20616;-78
2023/04/09 08:30:14;;;;;;;9.47;8.47;;;;;;;15.46;42.74;99493.34;6996562;28;20231;-77
2023/04/09 08:33:36;;;;;;;8.50;7.70;;;;;;;16.56;40.38;99482.53;6997270;28;20235;-78
2023/04/09 08:36:57;;;;;;;9.37;8.37;;;;;;;16.33;39.86;99482.34;6997429;28;20262;-77
2023/04/09 08:40:19;;;;;;;8.23;7.40;;;;;;;17.60;38.20;99490.16;6996877;28;20334;-78
2023/04/09 08:43:40;;;;;;;9.43;8.53;;;;;;;17.42;37.27;99498.41;6997006;28;20232;-78
2023/04/09 08:47:08;;;;;;;9.40;8.40;;;;;;;16.66;39.25;99493.72;6996927;28;20217;-78
2023/04/09 08:50:31;;;;;;;9.83;8.83;;;;;;;15.03;40.48;99478.75;6996695;28;20565;-77
2023/04/09 08:53:56;;;;;;;9.20;8.30;;;;;;;15.80;40.55;99506.47;6996541;28;20228;-78
2023/04/09 08:57:17;;;;;;;9.03;8.13;;;;;;;15.56;40.08;99503.72;6996862;28;20212;-78
2023/04/09 09:00:39;;;;;;;8.20;7.40;;;;;;;16.04;38.65;99494.75;6996687;28;20733;-77
2023/04/09 09:04:04;;;;;;;9.87;8.87;;;;;;;15.66;40.54;99501.38;6996541;28;20228;-78
2023/04/09 09:07:25;;;;;;;8.70;7.87;;;;;;;16.34;39.19;99509.31;6997257;28;20216;-77
2023/04/09 09:10:47;;;;;;;8.80;7.90;;;;;;;14.86;40.23;99503.91;6995860;28;20214;-77
2023/04/09 09:14:10;;;;;;;9.00;8.10;;;;;;;15.07;40.45;99507.16;6996192;28;20281;-78
2023/04/09 09:17:32;;;;;;;9.47;8.60;;;;;;;15.10;40.61;99505.88;6996696;28;20208;-77
2023/04/09 09:21:10;;;;;;;8.87;7.97;;;;;;;14.95;40.68;99470.03;6995078;28;20280;-77
2023/04/09 09:24:32;;;;;;;9.00;8.10;;;;;;;15.52;40.60;99500.63;6996283;28;20379;-78
2023/04/09 09:27:54;;;;;;;9.27;8.37;;;;;;;16.04;38.72;99511.09;6996157;28;20239;-77
2023/04/09 09:31:18;;;;;;;8.57;7.70;;;;;;;15.57;39.62;99508.94;6995606;28;20224;-78
2023/04/09 09:34:39;;;;;;;7.90;7.10;;;;;;;15.72;39.71;99500.47;6996355;28;20588;-77
2023/04/09 09:38:04;;;;;;;7.50;6.70;;;;;;;16.66;37.43;99505.47;6995866;28;20666;-78
2023/04/09 09:41:26;;;;;;;7.47;6.77;;;;;;;17.04;35.68;99508.75;6995273;28;20243;-78
2023/04/09 09:44:48;;;;;;;7.57;6.77;;;;;;;17.08;35.21;99501.78;6996539;28;20391;-77
2023/04/09 09:48:11;;;;;;;8.43;7.63;;;;;;;16.83;37.48;99494.78;6996281;28;20232;-79
2023/04/09 09:51:35;;;;;;;7.90;7.20;;;;;;;17.72;35.29;99504.66;6995487;28;20205;-77
2023/04/09 09:55:00;;;;;;;8.03;7.33;;;;;;;17.20;35.45;99510.00;6972477;28;20230;-77
2023/04/09 09:58:27;;;;;;;7.10;6.47;;;;;;;16.64;34.98;99495.84;6967929;28;20207;-77
2023/04/09 10:01:50;;;;;;;7.73;7.07;;;;;;;15.17;36.97;99493.91;6968333;28;20235;-77
2023/04/09 10:05:11;;;;;;;7.23;6.53;;;;;;;15.87;37.79;99498.28;6968031;28;20263;-77
2023/04/09 10:08:34;;;;;;;6.67;6.07;;;;;;;16.32;34.57;99497.00;6967848;28;20337;-77
2023/04/09 10:11:58;;;;;;;6.53;5.93;;;;;;;15.87;37.02;99506.44;6966864;28;20213;-78
2023/04/09 10:15:20;;;;;;;6.67;5.97;;;;;;;16.47;35.39;99490.19;6967810;28;20283;-77
2023/04/09 10:18:42;;;;;;;6.93;6.33;;;;;;;17.28;35.28;99480.53;6971250;28;20198;-77
2023/04/09 10:22:07;;;;;;;6.73;6.10;;;;;;;16.72;33.46;99480.03;6972659;28;20191;-77
2023/04/09 10:25:28;;;;;;;4.97;4.57;;;;;;;16.64;33.34;99493.94;6972978;28;20308;-78
2023/04/09 10:29:04;;;;;;;5.87;5.37;;;;;;;17.29;33.15;99503.19;6973014;28;20281;-77
2023/04/09 10:32:26;;;;;;;5.10;4.70;;;;;;;16.84;31.50;99491.84;6977760;28;20202;-78
2023/04/09 10:35:48;;;;;;;4.43;4.03;;;;;;;16.03;33.32;99493.09;6988115;28;20230;-80
2023/04/09 10:39:12;;;;;;;5.47;4.97;;;;;;;15.13;35.23;99470.97;6997595;28;20291;-80
2023/04/09 10:42:37;;;;;;;15.57;11.50;;;;;;;16.70;36.35;99484.88;6991563;28;20200;-80
2023/04/09 10:46:00;;;;;;;6.03;5.43;;;;;;;18.12;33.05;99475.66;6997818;28;20230;-77
2023/04/09 10:49:23;;;;;;;6.10;4.73;;;;;;;17.71;32.21;99478.47;7000050;28;20225;-76
2023/04/09 10:52:45;;;;;;;5.40;5.00;;;;;;;18.04;31.77;99467.00;6999138;28;20282;-78
2023/04/09 10:56:14;;;;;;;5.67;5.17;;;;;;;17.75;32.54;99478.81;6999603;28;20254;-77
2023/04/09 10:59:39;;;;;;;5.07;4.63;;;;;;;18.10;31.94;99461.41;7000017;28;20187;-77
2023/04/09 11:03:19;;;;;;;5.60;5.10;;;;;;;17.79;32.01;99447.25;6983967;28;20643;-77
2023/04/09 11:06:42;;;;;;;6.00;5.50;;;;;;;16.61;32.07;99477.22;6971921;28;20198;-76
2023/04/09 11:10:04;;;;;;;5.97;5.30;;;;;;;16.08;34.10;99462.50;6971535;28;20229;-76
2023/04/09 11:13:25;;;;;;;5.63;5.13;;;;;;;16.43;33.44;99467.19;6971619;28;20229;-76
2023/04/09 11:16:47;;;;;;;5.43;4.93;;;;;;;17.30;31.85;99447.59;6983058;28;20202;-76
2023/04/09 11:20:11;;;;;;;4.67;4.27;;;;;;;18.32;29.23;99448.84;6985374;28;20198;-76
2023/04/09 11:23:33;;;;;;;5.30;4.50;;;;;;;17.34;32.01;99451.53;6999567;28;20694;-78
2023/04/09 11:26:55;;;;;;;5.20;4.70;;;;;;;17.67;30.54;99433.63;7000179;28;20276;-78
2023/04/09 11:30:17;;;;;;;4.90;4.50;;;;;;;19.01;29.23;99420.50;6983567;28;20301;-78
2023/04/09 11:33:38;;;;;;;4.37;3.97;;;;;;;19.82;27.16;99429.13;6978263;28;20280;-77
2023/04/09 11:37:05;;;;;;;4.07;3.77;;;;;;;19.63;26.56;99439.47;6971504;28;20210;-79
2023/04/09 11:40:27;;;;;;;6.00;5.43;;;;;;;17.31;31.66;99444.66;6970647;28;20207;-78
2023/04/09 11:43:51;;;;;;;9.93;6.53;;;;;;;18.06;32.15;99440.28;6994164;28;20578;-80
2023/04/09 11:47:13;;;;;;;5.07;4.67;;;;;;;17.67;30.57;99424.59;7001012;28;20253;-78
2023/04/09 11:50:35;;;;;;;5.30;4.80;;;;;;;18.79;29.13;99430.44;6982164;28;20222;-79
2023/04/09 11:54:01;;;;;;;4.70;4.30;;;;;;;20.19;28.62;99422.88;6980442;28;20225;-77
2023/04/09 11:57:22;;;;;;;5.57;5.07;;;;;;;19.27;28.57;99437.19;7011097;28;20705;-81
2023/04/09 12:00:44;;;;;;;5.20;4.50;;;;;;;19.01;29.22;99428.72;7032894;28;20291;-80
2023/04/09 12:04:06;;;;;;;4.37;3.97;;;;;;;19.31;28.16;99437.50;7021803;28;20221;-79
2023/04/09 12:07:32;;;;;;;4.40;4.10;;;;;;;18.25;30.11;99430.88;6989144;28;20566;-79
2023/04/09 12:10:55;;;;;;;4.80;4.40;;;;;;;18.46;28.88;99420.19;6995562;28;20245;-78
2023/04/09 12:14:17;;;;;;;4.43;4.03;;;;;;;19.40;27.50;99423.19;6997548;28;20290;-78
2023/04/09 12:17:39;;;;;;;4.70;4.30;;;;;;;18.89;28.65;99417.84;6999964;28;20202;-79
2023/04/09 12:21:01;;;;;;;4.57;4.17;;;;;;;17.54;30.49;99422.94;6994825;28;20195;-79
2023/04/09 12:24:24;;;;;;;4.10;3.80;;;;;;;18.20;29.70;99417.97;6993906;28;20226;-78
2023/04/09 12:27:47;;;;;;;4.60;4.20;;;;;;;19.99;28.04;99427.19;6999438;28;20205;-79
2023/04/09 12:31:09;;;;;;;4.30;4.00;;;;;;;18.89;28.54;99415.09;6992454;28;20308;-78
2023/04/09 12:34:31;;;;;;;5.60;5.10;;;;;;;17.73;30.03;99404.56;7003071;28;20781;-78
2023/04/09 12:37:55;;;;;;;5.10;4.70;;;;;;;18.73;28.33;99432.25;7002331;28;20658;-80
2023/04/09 12:41:29;;;;;;;5.17;4.77;;;;;;;18.84;28.51;99414.16;6998976;28;20202;-79
2023/04/09 12:44:53;;;;;;;4.73;4.33;;;;;;;19.87;27.13;99405.38;6997171;28;20745;-78
2023/04/09 12:48:18;;;;;;;4.47;4.07;;;;;;;20.11;27.47;99403.31;6988605;28;20206;-78
2023/04/09 12:51:54;;;;;;;4.83;4.43;;;;;;;20.21;26.48;99389.75;6971061;28;20264;-79
2023/04/09 12:55:25;;;;;;;4.83;4.27;;;;;;;20.77;27.16;99382.81;6970256;28;20235;-78
2023/04/09 12:58:46;;;;;;;4.67;4.17;;;;;;;20.82;26.23;99386.72;6972890;28;20206;-79
2023/04/09 13:02:10;;;;;;;3.77;3.47;;;;;;;19.84;27.32;99361.25;6974709;28;20212;-78
2023/04/09 13:05:34;;;;;;;4.33;3.93;;;;;;;18.96;27.65;99383.00;6968778;28;20367;-79
2023/04/09 13:08:55;;;;;;;4.40;4.00;;;;;;;18.71;27.43;99396.16;6988120;28;20278;-80
2023/04/09 13:12:17;;;;;;;4.30;3.90;;;;;;;18.97;27.59;99381.91;6993841;28;22446;-78
2023/04/09 13:15:39;;;;;;;4.30;3.90;;;;;;;18.83;27.86;99369.63;6991674;28;20221;-79
2023/04/09 13:19:01;;;;;;;4.17;3.77;;;;;;;18.50;28.13;99379.59;6996191;28;20344;-80
2023/04/09 13:22:23;;;;;;;3.73;3.43;;;;;;;18.15;28.80;99368.72;6968087;28;20735;-79
2023/04/09 13:25:44;;;;;;;4.70;4.30;;;;;;;18.54;26.98;99375.31;6972090;28;20222;-79
2023/04/09 13:29:07;;;;;;;5.30;3.90;;;;;;;19.18;28.61;99366.72;6980643;28;20694;-79
2023/04/09 13:32:28;;;;;;;3.90;3.60;;;;;;;19.45;27.36;99359.56;6985474;28;20250;-79
2023/04/09 13:35:51;;;;;;;4.33;3.87;;;;;;;19.55;27.92;99362.44;6994808;28;20344;-79
2023/04/09 13:39:12;;;;;;;4.33;3.93;;;;;;;20.19;25.33;99356.31;6978803;28;20202;-79
2023/04/09 13:42:36;;;;;;;4.40;4.00;;;;;;;19.78;25.91;99352.16;6972539;28;20206;-79
2023/04/09 13:45:57;;;;;;;4.50;4.10;;;;;;;18.76;28.35;99346.25;6990492;28;20232;-79
2023/04/09 13:49:19;;;;;;;4.97;4.43;;;;;;;18.65;28.33;99350.69;6995799;28;20230;-79
2023/04/09 13:52:42;;;;;;;5.47;4.40;;;;;;;18.28;29.19;99348.53;6993581;28;20729;-78
2023/04/09 13:56:04;;;;;;;6.43;4.63;;;;;;;18.05;28.45;99343.13;6995989;28;20706;-80
2023/04/09 13:59:26;;;;;;;5.07;4.57;;;;;;;18.32;28.31;99349.72;6996491;28;20262;-79
2023/04/09 14:02:47;;;;;;;4.73;4.33;;;;;;;19.03;27.42;99345.41;6995484;28;20266;-78
2023/04/09 14:06:09;;;;;;;5.53;4.73;;;;;;;19.42;28.00;99338.16;6973016;28;20218;-79
2023/04/09 14:09:32;;;;;;;5.33;4.57;;;;;;;19.08;27.47;99342.75;6967977;28;20691;-79
2023/04/09 14:12:53;;;;;;;5.27;4.80;;;;;;;19.15;27.65;99343.44;6971485;28;20266;-78
2023/04/09 14:16:15;;;;;;;5.90;5.40;;;;;;;19.08;28.00;99330.97;6983573;28;20341;-79
2023/04/09 14:19:36;;;;;;;5.77;5.27;;;;;;;19.01;28.56;99333.88;7013367;28;20291;-78
2023/04/09 14:22:58;;;;;;;5.60;5.10;;;;;;;19.48;28.62;99327.06;7022951;28;20604;-79
2023/04/09 14:26:22;;;;;;;5.10;4.67;;;;;;;19.86;27.62;99324.34;7023319;28;20296;-79
2023/04/09 14:29:44;;;;;;;6.03;5.43;;;;;;;19.10;27.11;99312.44;7016958;28;20225;-78
2023/04/09 14:33:05;;;;;;;5.43;4.80;;;;;;;19.62;27.09;99313.84;6997107;28;20253;-79
2023/04/09 14:36:26;;;;;;;5.63;5.13;;;;;;;19.94;27.97;99314.88;6995519;28;20209;-79
2023/04/09 14:39:48;;;;;;;5.57;5.07;;;;;;;19.65;27.58;99311.47;6994953;28;20646;-79
2023/04/09 14:43:11;;;;;;;6.13;5.40;;;;;;;19.79;26.61;99311.91;6996900;28;20270;-79
2023/04/09 14:46:32;;;;;;;4.87;4.47;;;;;;;19.85;26.18;99281.66;6997298;28;20581;-79
2023/04/09 14:49:54;;;;;;;5.53;5.00;;;;;;;19.35;26.73;99315.63;6995697;28;20230;-79
2023/04/09 14:53:15;;;;;;;5.50;5.00;;;;;;;19.68;27.81;99308.22;6996560;28;20582;-79
2023/04/09 14:56:37;;;;;;;5.27;4.77;;;;;;;20.04;26.79;99312.31;6998056;28;20235;-79
2023/04/09 15:00:00;;;;;;;4.90;4.50;;;;;;;20.29;25.65;99301.69;6997413;28;20213;-79
2023/04/09 15:03:22;;;;;;;4.83;4.43;;;;;;;20.67;26.06;99312.53;7002109;28;20259;-79
2023/04/09 15:06:44;;;;;;;4.93;4.43;;;;;;;19.96;26.62;99319.03;7001569;28;20206;-79
2023/04/09 15:10:06;;;;;;;4.97;4.57;;;;;;;18.57;27.73;99318.28;7001107;28;20276;-79
2023/04/09 15:13:28;;;;;;;5.10;4.70;;;;;;;19.21;28.66;99317.06;7002333;28;20286;-78
2023/04/09 15:16:54;;;;;;;5.70;5.20;;;;;;;19.37;27.48;99306.09;7001628;28;20210;-79
2023/04/09 15:20:16;;;;;;;5.13;4.63;;;;;;;20.06;26.83;99318.34;7001486;28;20644;-79
2023/04/09 15:23:38;;;;;;;5.57;5.10;;;;;;;19.79;27.10;99300.97;7001340;28;20264;-79
2023/04/09 15:27:00;;;;;;;6.03;5.47;;;;;;;19.33;27.40;99312.34;7001216;28;20193;-79
2023/04/09 15:30:21;;;;;;;6.17;5.57;;;;;;;19.23;27.08;99309.41;7000358;28;20713;-79
2023/04/09 15:33:45;;;;;;;6.20;5.37;;;;;;;18.96;27.87;99295.53;6999233;28;20267;-79
2023/04/09 15:37:07;;;;;;;5.00;4.60;;;;;;;19.45;27.49;99305.69;7000074;28;20213;-79
2023/04/09 15:40:29;;;;;;;5.80;5.30;;;;;;;19.24;27.40;99314.66;6999108;28;20721;-79
2023/04/09 15:43:51;;;;;;;5.90;5.23;;;;;;;19.30;27.91;99294.50;6999080;28;20249;-79
2023/04/09 15:47:13;;;;;;;6.20;5.60;;;;;;;19.86;26.68;99312.59;6999272;28;20210;-79